Time;durP1;ratioP1;P1;durP2;ratioP2;P2;SDS_P1;SDS_P2;PMS_P1;PMS_P2;Temp;Humidity;BMP_temperature;BMP_pressure;BME280_temperature;BME280_humidity;BME280_pressure;Samples;Min_cycle;Max_cycle;Signal;HPM_P1;HPM_P2
2023/08/01 00:00:57;;;;;;;12.98;8.98;;;;;;;15.77;100.00;99873.38;5018845;28;20105;-65
2023/08/01 00:03:23;;;;;;;13.98;8.65;;;;;;;15.76;100.00;99871.75;5022439;28;20129;-65
2023/08/01 00:05:48;;;;;;;15.48;8.43;;;;;;;15.76;100.00;99863.72;5021130;28;20057;-65
2023/08/01 00:08:14;;;;;;;15.13;7.78;;;;;;;15.76;100.00;99866.41;5020078;28;20532;-65
2023/08/01 00:10:40;;;;;;;13.85;7.65;;;;;;;15.75;100.00;99854.06;5020424;28;20109;-65
2023/08/01 00:13:06;;;;;;;11.30;7.35;;;;;;;15.80;100.00;99846.16;5021773;28;20018;-65
2023/08/01 00:15:31;;;;;;;11.70;7.20;;;;;;;15.78;100.00;99850.94;5028586;28;20030;-65
2023/08/01 00:17:56;;;;;;;14.90;8.18;;;;;;;15.78;100.00;99842.91;5021493;28;20033;-65
2023/08/01 00:20:22;;;;;;;12.88;7.22;;;;;;;15.79;100.00;99833.81;5019825;28;20133;-65
2023/08/01 00:22:47;;;;;;;13.65;7.05;;;;;;;15.80;100.00;99838.13;5026128;28;20033;-65
2023/08/01 00:25:13;;;;;;;13.07;7.28;;;;;;;15.79;100.00;99841.84;5019913;28;20040;-65
2023/08/01 00:27:38;;;;;;;9.90;7.10;;;;;;;15.77;100.00;99835.91;5024181;28;20036;-64
2023/08/01 00:30:04;;;;;;;10.82;6.95;;;;;;;15.79;100.00;99843.72;5020822;28;20033;-65
2023/08/01 00:32:30;;;;;;;9.65;7.13;;;;;;;15.79;100.00;99839.16;5025864;28;20528;-65
2023/08/01 00:34:55;;;;;;;13.38;8.00;;;;;;;15.78;100.00;99820.66;5025221;28;20054;-65
2023/08/01 00:37:20;;;;;;;13.15;6.70;;;;;;;15.77;100.00;99825.19;5021588;28;20034;-65
2023/08/01 00:39:45;;;;;;;15.00;7.07;;;;;;;15.78;100.00;99816.13;5024790;28;20422;-65
2023/08/01 00:42:11;;;;;;;11.23;6.57;;;;;;;15.75;100.00;99813.09;5023081;28;20033;-65
2023/08/01 00:44:36;;;;;;;14.65;6.05;;;;;;;15.75;100.00;99824.63;5025825;28;20036;-65
2023/08/01 00:47:01;;;;;;;12.90;6.35;;;;;;;15.75;100.00;99831.84;5023464;28;20018;-65
2023/08/01 00:49:27;;;;;;;11.77;6.53;;;;;;;15.75;100.00;99826.47;5022843;28;20036;-65
2023/08/01 00:51:52;;;;;;;10.65;5.95;;;;;;;15.72;100.00;99805.53;5022176;28;20036;-65
2023/08/01 00:54:18;;;;;;;9.70;5.40;;;;;;;15.72;100.00;99819.72;5024510;28;20469;-65
2023/08/01 00:56:44;;;;;;;10.48;5.57;;;;;;;15.71;100.00;99818.09;5022668;28;20057;-65
2023/08/01 00:59:10;;;;;;;14.95;6.40;;;;;;;15.66;100.00;99817.97;5022933;28;20038;-65
2023/08/01 01:01:35;;;;;;;9.77;5.97;;;;;;;15.66;100.00;99822.50;5020240;28;20032;-65
2023/08/01 01:04:01;;;;;;;12.45;6.30;;;;;;;15.62;100.00;99819.47;5021040;28;20077;-64
2023/08/01 01:06:34;;;;;;;13.07;5.95;;;;;;;15.59;100.00;99819.09;5026135;28;20049;-65
2023/08/01 01:08:59;;;;;;;8.07;5.20;;;;;;;15.55;100.00;99820.56;5021009;28;20083;-65
2023/08/01 01:11:24;;;;;;;9.63;5.15;;;;;;;15.49;100.00;99814.25;5023768;28;20029;-65
2023/08/01 01:13:52;;;;;;;15.63;5.20;;;;;;;15.45;100.00;99821.94;5022787;28;20029;-64
2023/08/01 01:16:19;;;;;;;11.60;5.18;;;;;;;15.39;100.00;99814.81;5024101;28;20089;-65
2023/08/01 01:18:44;;;;;;;10.02;5.40;;;;;;;15.35;100.00;99816.31;5025856;28;20156;-64
2023/08/01 01:21:09;;;;;;;12.63;5.47;;;;;;;15.32;100.00;99808.72;5021365;28;20129;-65
2023/08/01 01:23:35;;;;;;;12.65;5.90;;;;;;;15.27;100.00;99808.59;5025549;28;20487;-65
2023/08/01 01:26:02;;;;;;;12.50;5.78;;;;;;;15.22;100.00;99807.63;5017922;28;20025;-64
2023/08/01 01:28:28;;;;;;;13.73;5.65;;;;;;;15.17;100.00;99802.97;5024236;28;20111;-65
2023/08/01 01:30:55;;;;;;;13.52;5.70;;;;;;;15.14;100.00;99814.94;5019249;28;20021;-65
2023/08/01 01:33:20;;;;;;;14.07;5.90;;;;;;;15.09;100.00;99811.31;5021539;28;20029;-65
2023/08/01 01:35:47;;;;;;;14.20;5.55;;;;;;;15.06;100.00;99815.25;5020404;28;20087;-65
2023/08/01 01:38:12;;;;;;;14.45;5.60;;;;;;;15.03;100.00;99801.50;5020460;28;20036;-65
2023/08/01 01:40:38;;;;;;;11.63;5.38;;;;;;;15.02;100.00;99805.22;5019460;28;20037;-65
2023/08/01 01:43:03;;;;;;;11.65;5.55;;;;;;;15.01;100.00;99807.06;5022725;28;20033;-64
2023/08/01 01:45:28;;;;;;;14.00;5.68;;;;;;;15.02;100.00;99795.34;5024911;28;20104;-65
2023/08/01 01:47:53;;;;;;;14.77;6.10;;;;;;;15.00;100.00;99797.41;5024881;28;20029;-65
2023/08/01 01:50:19;;;;;;;16.13;6.65;;;;;;;15.01;100.00;99807.06;5020514;28;21683;-64
2023/08/01 01:52:45;;;;;;;16.92;6.57;;;;;;;14.98;100.00;99798.69;5022932;28;20049;-65
2023/08/01 01:55:10;;;;;;;15.27;6.88;;;;;;;14.93;100.00;99804.72;5022986;28;20053;-65
2023/08/01 01:57:36;;;;;;;17.00;6.72;;;;;;;14.90;100.00;99801.66;5021829;28;20029;-65
2023/08/01 02:00:05;;;;;;;13.45;7.20;;;;;;;14.88;100.00;99807.25;5018649;28;20029;-65
2023/08/01 02:02:31;;;;;;;17.33;7.90;;;;;;;14.86;100.00;99803.97;5024718;28;20091;-65
2023/08/01 02:04:57;;;;;;;16.48;7.53;;;;;;;14.86;100.00;99799.44;5024832;28;20033;-64
2023/08/01 02:07:22;;;;;;;24.08;8.05;;;;;;;14.85;100.00;99802.34;5022913;28;20120;-65
2023/08/01 02:09:47;;;;;;;20.10;7.78;;;;;;;14.84;100.00;99800.72;5025450;28;20108;-65
2023/08/01 02:12:14;;;;;;;18.65;8.02;;;;;;;14.82;100.00;99800.94;5022336;28;20022;-65
2023/08/01 02:14:40;;;;;;;20.88;8.15;;;;;;;14.83;100.00;99799.91;5024291;28;20025;-65
2023/08/01 02:17:05;;;;;;;21.63;8.40;;;;;;;14.83;100.00;99794.56;5017113;28;20552;-64
2023/08/01 02:19:30;;;;;;;22.00;9.05;;;;;;;14.87;100.00;99795.75;5025293;28;20044;-65
2023/08/01 02:21:56;;;;;;;19.27;7.97;;;;;;;14.87;100.00;99798.41;5020069;28;20034;-65
2023/08/01 02:24:21;;;;;;;19.58;9.60;;;;;;;14.88;100.00;99796.56;5020746;28;20085;-65
2023/08/01 02:26:46;;;;;;;21.98;9.68;;;;;;;14.91;100.00;99806.78;5021025;28;20043;-64
2023/08/01 02:29:11;;;;;;;17.08;8.90;;;;;;;14.91;100.00;99801.44;5019525;28;20025;-64
2023/08/01 02:31:37;;;;;;;17.92;9.00;;;;;;;14.95;100.00;99802.63;5016988;28;20041;-65
2023/08/01 02:34:02;;;;;;;21.27;9.52;;;;;;;14.96;100.00;99795.41;5018553;28;20462;-65
2023/08/01 02:36:27;;;;;;;16.42;8.70;;;;;;;14.94;100.00;99798.31;5017102;28;20090;-65
2023/08/01 02:38:53;;;;;;;17.60;8.77;;;;;;;14.92;100.00;99799.59;5024258;28;20394;-65
2023/08/01 02:41:18;;;;;;;20.98;9.20;;;;;;;14.91;100.00;99809.47;5022385;28;20076;-65
2023/08/01 02:43:43;;;;;;;22.85;9.57;;;;;;;14.92;100.00;99819.13;5019461;28;20479;-64
2023/08/01 02:46:08;;;;;;;21.35;9.35;;;;;;;14.88;100.00;99808.06;5021652;28;20037;-65
2023/08/01 02:48:35;;;;;;;22.58;9.45;;;;;;;14.86;100.00;99810.13;5020860;28;20471;-65
2023/08/01 02:51:00;;;;;;;19.65;9.40;;;;;;;14.86;100.00;99814.66;5019443;28;20499;-65
2023/08/01 02:53:26;;;;;;;20.52;9.32;;;;;;;14.85;100.00;99813.03;5026265;28;20059;-65
2023/08/01 02:55:51;;;;;;;18.55;9.32;;;;;;;14.84;100.00;99824.78;5022351;28;20028;-65
2023/08/01 02:58:16;;;;;;;19.42;9.43;;;;;;;14.81;100.00;99825.22;5020144;28;20115;-64
2023/08/01 03:00:41;;;;;;;20.13;8.57;;;;;;;14.75;100.00;99810.91;5024817;28;20441;-65
2023/08/01 03:03:07;;;;;;;24.67;9.90;;;;;;;14.72;100.00;99799.81;5019701;28;20029;-65
2023/08/01 03:05:35;;;;;;;23.85;10.30;;;;;;;14.70;100.00;99808.06;5021638;28;20013;-64
2023/08/01 03:08:00;;;;;;;19.05;10.02;;;;;;;14.69;100.00;99802.94;5016091;28;20032;-65
2023/08/01 03:10:25;;;;;;;20.70;9.80;;;;;;;14.65;100.00;99799.88;5029779;28;20083;-64
2023/08/01 03:12:50;;;;;;;23.38;10.80;;;;;;;14.64;100.00;99811.63;5021264;28;20029;-64
2023/08/01 03:15:16;;;;;;;23.58;11.13;;;;;;;14.63;100.00;99815.34;5022113;28;20021;-65
2023/08/01 03:17:41;;;;;;;24.48;11.73;;;;;;;14.63;100.00;99814.50;5016644;28;20047;-65
2023/08/01 03:20:10;;;;;;;24.42;12.30;;;;;;;14.63;100.00;99815.34;5012457;28;20021;-64
2023/08/01 03:22:39;;;;;;;26.15;12.25;;;;;;;14.63;100.00;99811.84;5014408;28;20394;-65
2023/08/01 03:25:07;;;;;;;23.48;13.30;;;;;;;14.63;100.00;99823.34;5018120;28;20030;-65
2023/08/01 03:27:33;;;;;;;27.35;13.60;;;;;;;14.65;100.00;99817.78;5018991;28;20441;-64
2023/08/01 03:29:58;;;;;;;27.45;14.25;;;;;;;14.65;100.00;99817.78;5023237;28;20029;-65
2023/08/01 03:32:24;;;;;;;27.92;14.23;;;;;;;14.67;100.00;99831.72;5025824;28;20079;-65
2023/08/01 03:34:49;;;;;;;23.40;14.88;;;;;;;14.68;100.00;99820.00;5026309;28;20083;-64
2023/08/01 03:37:15;;;;;;;29.23;15.27;;;;;;;14.68;100.00;99820.00;5025249;28;20025;-65
2023/08/01 03:39:41;;;;;;;28.83;15.38;;;;;;;14.68;100.00;99822.69;5025101;28;20025;-65
2023/08/01 03:42:06;;;;;;;31.73;16.77;;;;;;;14.68;100.00;99820.00;5024867;28;20044;-65
2023/08/01 03:44:32;;;;;;;31.50;17.42;;;;;;;14.68;100.00;99825.34;5022443;28;20525;-65
2023/08/01 03:46:57;;;;;;;29.80;16.35;;;;;;;14.65;100.00;99823.13;5022496;28;20029;-65
2023/08/01 03:49:22;;;;;;;33.42;17.98;;;;;;;14.63;100.00;99818.00;5019501;28;20029;-65
2023/08/01 03:51:48;;;;;;;35.75;19.35;;;;;;;14.62;100.00;99818.22;5020691;28;20029;-65
2023/08/01 03:54:13;;;;;;;30.35;17.77;;;;;;;14.61;100.00;99824.59;5020579;28;20034;-65
2023/08/01 03:56:42;;;;;;;33.42;18.35;;;;;;;14.60;100.00;99828.31;5023170;28;20024;-65
2023/08/01 03:59:07;;;;;;;33.67;19.23;;;;;;;14.61;100.00;99832.63;5020607;28;20116;-65
2023/08/01 04:01:33;;;;;;;37.00;19.95;;;;;;;14.60;100.00;99826.47;5020394;28;20109;-65
2023/08/01 04:03:58;;;;;;;39.00;21.45;;;;;;;14.60;100.00;99829.13;5018163;28;20038;-65
2023/08/01 04:06:23;;;;;;;38.33;20.48;;;;;;;14.60;100.00;99822.97;5020285;28;20037;-65
2023/08/01 04:08:48;;;;;;;37.15;20.70;;;;;;;14.58;100.00;99825.88;5021673;28;20534;-65
2023/08/01 04:11:14;;;;;;;36.25;20.95;;;;;;;14.59;100.00;99818.66;5020803;28;20086;-65
2023/08/01 04:13:39;;;;;;;38.53;21.10;;;;;;;14.59;100.00;99822.16;5021194;28;20014;-65
2023/08/01 04:16:04;;;;;;;33.10;20.92;;;;;;;14.61;100.00;99825.44;5019441;28;20036;-65
2023/08/01 04:18:29;;;;;;;43.47;21.27;;;;;;;14.64;100.00;99832.19;5021751;28;20032;-65
2023/08/01 04:20:55;;;;;;;38.08;20.88;;;;;;;14.65;100.00;99823.94;5021555;28;20104;-65
2023/08/01 04:23:20;;;;;;;43.92;21.70;;;;;;;14.64;100.00;99822.31;5018145;28;20033;-65
2023/08/01 04:25:45;;;;;;;38.45;20.02;;;;;;;14.64;100.00;99824.16;5019892;28;20037;-65
2023/08/01 04:28:10;;;;;;;41.38;19.73;;;;;;;14.64;100.00;99824.16;5016328;28;20609;-65
2023/08/01 04:30:38;;;;;;;35.15;20.38;;;;;;;14.64;100.00;99826.84;5025011;28;20032;-65
2023/08/01 04:33:03;;;;;;;37.03;20.10;;;;;;;14.65;100.00;99815.09;5019186;28;20399;-64
2023/08/01 04:35:28;;;;;;;37.30;20.25;;;;;;;14.65;100.00;99818.59;5022077;28;20026;-65
2023/08/01 04:37:54;;;;;;;36.88;19.55;;;;;;;14.65;100.00;99823.13;5019174;28;20033;-64
2023/08/01 04:40:19;;;;;;;36.65;19.15;;;;;;;14.64;100.00;99822.31;5021189;28;20030;-65
2023/08/01 04:42:44;;;;;;;42.42;20.17;;;;;;;14.65;100.00;99821.28;5022980;28;20025;-65
2023/08/01 04:45:09;;;;;;;33.08;19.05;;;;;;;14.68;100.00;99826.16;5018880;28;20415;-65
2023/08/01 04:47:35;;;;;;;33.97;19.83;;;;;;;14.72;100.00;99834.56;5019443;28;20025;-65
2023/08/01 04:50:00;;;;;;;35.20;19.50;;;;;;;14.78;100.00;99836.38;5016934;28;20116;-64
2023/08/01 04:52:26;;;;;;;36.90;19.00;;;;;;;14.78;100.00;99831.84;5018363;28;20033;-65
2023/08/01 04:54:51;;;;;;;38.40;19.02;;;;;;;14.84;100.00;99841.63;5012310;28;20514;-65
2023/08/01 04:57:16;;;;;;;38.88;18.65;;;;;;;14.88;100.00;99839.31;5024896;28;20045;-64
2023/08/01 04:59:42;;;;;;;38.33;19.83;;;;;;;14.89;100.00;99838.28;5025226;28;20045;-65
2023/08/01 05:02:07;;;;;;;34.58;19.73;;;;;;;14.90;100.00;99836.41;5022708;28;20036;-64
2023/08/01 05:04:32;;;;;;;31.25;18.10;;;;;;;14.93;100.00;99839.47;5026170;28;20106;-64
2023/08/01 05:06:57;;;;;;;31.80;18.08;;;;;;;14.96;100.00;99843.53;5025694;28;20025;-65
2023/08/01 05:09:22;;;;;;;30.10;16.90;;;;;;;14.98;100.00;99844.13;5017924;28;20564;-65
2023/08/01 05:11:48;;;;;;;31.88;17.00;;;;;;;14.98;100.00;99842.28;5026083;28;20044;-65
2023/08/01 05:14:13;;;;;;;29.27;16.33;;;;;;;14.98;100.00;99836.13;5017607;28;20025;-64
2023/08/01 05:16:38;;;;;;;27.77;16.45;;;;;;;14.95;100.00;99845.41;5024153;28;20026;-65
2023/08/01 05:19:03;;;;;;;28.45;15.65;;;;;;;14.93;100.00;99834.13;5021432;28;20025;-65
2023/08/01 05:21:29;;;;;;;26.92;16.02;;;;;;;14.94;100.00;99830.41;5020626;28;20021;-65
2023/08/01 05:23:54;;;;;;;30.58;16.48;;;;;;;14.96;100.00;99839.00;5015259;28;20057;-65
2023/08/01 05:26:19;;;;;;;26.38;16.00;;;;;;;14.99;100.00;99830.53;5020975;28;20041;-64
2023/08/01 05:28:45;;;;;;;27.75;16.08;;;;;;;15.00;100.00;99845.53;5018291;28;20584;-65
2023/08/01 05:31:10;;;;;;;27.80;14.48;;;;;;;15.00;100.00;99832.19;5025492;28;20415;-65
2023/08/01 05:33:35;;;;;;;24.90;12.45;;;;;;;15.03;100.00;99831.72;5026953;28;20441;-65
2023/08/01 05:36:01;;;;;;;27.17;12.98;;;;;;;15.05;100.00;99837.69;5025734;28;20041;-65
2023/08/01 05:38:26;;;;;;;25.02;12.60;;;;;;;15.08;100.00;99841.78;5025807;28;20021;-65
2023/08/01 05:40:51;;;;;;;24.42;11.68;;;;;;;15.10;100.00;99843.19;5022555;28;20454;-65
2023/08/01 05:43:17;;;;;;;23.38;12.18;;;;;;;15.14;100.00;99848.91;5027257;28;20017;-65
2023/08/01 05:45:42;;;;;;;28.17;13.05;;;;;;;15.11;100.00;99847.47;5027995;28;20036;-65
2023/08/01 05:48:07;;;;;;;28.15;12.63;;;;;;;15.12;100.00;99856.31;5025133;28;20120;-65
2023/08/01 05:50:32;;;;;;;30.83;14.48;;;;;;;15.12;100.00;99857.13;5017397;28;20028;-65
2023/08/01 05:52:58;;;;;;;25.35;13.35;;;;;;;15.14;100.00;99856.91;5020232;28;20014;-64
2023/08/01 05:55:23;;;;;;;26.90;15.00;;;;;;;15.17;100.00;99873.31;5021319;28;20018;-65
2023/08/01 05:57:52;;;;;;;31.15;13.90;;;;;;;15.16;100.00;99860.19;5016077;28;20563;-65
2023/08/01 06:00:18;;;;;;;24.58;14.02;;;;;;;15.13;100.00;99856.09;5022209;28;20025;-65
2023/08/01 06:02:43;;;;;;;32.08;15.05;;;;;;;15.14;100.00;99876.44;5027419;28;20034;-65
2023/08/01 06:05:08;;;;;;;29.75;14.52;;;;;;;15.15;100.00;99871.91;5028564;28;20244;-65
2023/08/01 06:07:34;;;;;;;31.00;14.90;;;;;;;15.15;100.00;99867.38;5022518;28;20033;-65
2023/08/01 06:09:59;;;;;;;28.83;14.00;;;;;;;15.18;100.00;99874.13;5025622;28;20033;-65
2023/08/01 06:12:25;;;;;;;30.75;13.63;;;;;;;15.20;100.00;99866.72;5028235;28;20017;-65
2023/08/01 06:14:50;;;;;;;30.38;13.73;;;;;;;15.21;100.00;99881.72;5017330;28;20029;-65
2023/08/01 06:17:15;;;;;;;30.77;13.70;;;;;;;15.32;100.00;99877.47;5019954;28;20029;-65
2023/08/01 06:19:41;;;;;;;24.60;12.93;;;;;;;15.30;100.00;99868.84;5024254;28;20033;-65
2023/08/01 06:22:06;;;;;;;23.88;12.10;;;;;;;15.30;100.00;99876.88;5028259;28;20429;-65
2023/08/01 06:24:31;;;;;;;28.90;13.05;;;;;;;15.33;100.00;99871.91;5029304;28;20025;-65
2023/08/01 06:26:56;;;;;;;28.75;12.32;;;;;;;15.37;100.00;99873.09;5019959;28;20418;-65
2023/08/01 06:29:22;;;;;;;22.75;11.95;;;;;;;15.43;100.00;99866.00;5019113;28;20032;-65
2023/08/01 06:31:47;;;;;;;23.95;12.20;;;;;;;15.52;100.00;99869.19;5033863;28;20383;-65
2023/08/01 06:34:12;;;;;;;24.15;11.05;;;;;;;15.63;100.00;99885.34;5022507;28;20549;-65
2023/08/01 06:36:38;;;;;;;21.83;11.18;;;;;;;15.68;100.00;99874.75;5028876;28;20041;-64
2023/08/01 06:39:03;;;;;;;22.40;11.40;;;;;;;15.72;100.00;99875.13;5024909;28;20021;-65
2023/08/01 06:41:28;;;;;;;23.58;10.70;;;;;;;15.76;100.00;99881.66;5022103;28;20033;-65
2023/08/01 06:43:54;;;;;;;17.55;8.95;;;;;;;15.73;100.00;99890.94;5029790;28;20510;-65
2023/08/01 06:46:19;;;;;;;18.27;9.73;;;;;;;15.80;100.00;99880.97;5025718;28;20028;-65
2023/08/01 06:48:44;;;;;;;20.13;10.20;;;;;;;15.88;100.00;99889.72;5021599;28;20061;-65
2023/08/01 06:51:10;;;;;;;16.23;9.18;;;;;;;15.91;100.00;99891.94;5019304;28;20373;-65
2023/08/01 06:53:35;;;;;;;20.90;9.13;;;;;;;15.92;100.00;99901.63;5028273;28;20017;-65
2023/08/01 06:56:00;;;;;;;20.35;9.95;;;;;;;15.96;100.00;99894.75;5025455;28;20029;-65
2023/08/01 06:58:25;;;;;;;18.52;9.27;;;;;;;16.00;100.00;99893.25;5017882;28;20014;-65
2023/08/01 07:00:51;;;;;;;17.83;8.77;;;;;;;16.08;100.00;99900.94;5025684;28;20030;-65
2023/08/01 07:03:16;;;;;;;18.67;9.45;;;;;;;16.13;100.00;99908.28;5025217;28;20430;-65
2023/08/01 07:05:42;;;;;;;16.98;9.15;;;;;;;16.15;100.00;99907.00;5023612;28;20037;-65
2023/08/01 07:08:07;;;;;;;16.40;8.85;;;;;;;16.18;100.00;99903.06;5016154;28;20019;-65
2023/08/01 07:10:35;;;;;;;17.50;8.68;;;;;;;16.28;100.00;99906.00;5019429;28;20491;-65
2023/08/01 07:13:04;;;;;;;16.27;8.00;;;;;;;16.30;100.00;99904.72;5020338;28;20022;-65
2023/08/01 07:15:30;;;;;;;16.98;7.82;;;;;;;16.29;100.00;99896.91;5022535;28;20056;-65
2023/08/01 07:17:55;;;;;;;16.17;7.32;;;;;;;16.34;100.00;99905.91;5027459;28;20471;-65
2023/08/01 07:20:20;;;;;;;18.77;6.90;;;;;;;16.36;100.00;99900.31;5025840;28;20017;-65
2023/08/01 07:22:45;;;;;;;16.90;6.82;;;;;;;16.36;100.00;99894.94;5025214;28;20025;-66
2023/08/01 07:25:11;;;;;;;15.45;7.55;;;;;;;16.39;100.00;99889.13;5024946;28;20025;-65
2023/08/01 07:27:37;;;;;;;14.27;6.70;;;;;;;16.40;100.00;99890.75;5018812;28;20494;-66
2023/08/01 07:30:04;;;;;;;18.27;7.28;;;;;;;16.39;100.00;99902.50;5024093;28;20025;-66
2023/08/01 07:32:29;;;;;;;14.90;6.88;;;;;;;16.38;100.00;99890.97;5021870;28;20024;-65
2023/08/01 07:34:54;;;;;;;17.55;6.70;;;;;;;16.34;100.00;99889.81;5028414;28;20017;-65
2023/08/01 07:37:20;;;;;;;15.80;6.55;;;;;;;16.33;100.00;99896.22;5023213;28;20022;-65
2023/08/01 07:39:45;;;;;;;13.50;6.32;;;;;;;16.34;100.00;99897.84;5021438;28;20075;-66
2023/08/01 07:42:10;;;;;;;15.65;6.53;;;;;;;16.31;100.00;99901.00;5021817;28;20022;-66
2023/08/01 07:44:35;;;;;;;18.73;6.50;;;;;;;16.34;100.00;99900.53;5022041;28;20105;-65
2023/08/01 07:47:00;;;;;;;18.02;7.05;;;;;;;16.43;100.00;99898.31;5013257;28;20026;-66
2023/08/01 07:49:26;;;;;;;14.77;6.13;;;;;;;16.51;100.00;99891.81;5027384;28;20035;-65
2023/08/01 07:51:51;;;;;;;13.02;5.88;;;;;;;16.58;100.00;99892.53;5016897;28;20471;-65
2023/08/01 07:54:16;;;;;;;15.32;5.70;;;;;;;16.59;100.00;99900.31;5019339;28;20026;-65
2023/08/01 07:56:43;;;;;;;13.52;5.80;;;;;;;16.59;100.00;99902.19;5014707;28;20044;-66
2023/08/01 07:59:10;;;;;;;16.30;5.50;;;;;;;16.61;100.00;99905.44;5020372;28;20025;-65
2023/08/01 08:01:35;;;;;;;12.55;5.80;;;;;;;16.61;100.00;99906.28;5027702;28;20032;-66
2023/08/01 08:04:00;;;;;;;20.55;6.32;;;;;;;16.64;100.00;99897.75;5026561;28;20026;-66
2023/08/01 08:06:25;;;;;;;14.25;5.85;;;;;;;16.62;100.00;99896.34;5021785;28;20108;-65
2023/08/01 08:08:51;;;;;;;14.07;6.03;;;;;;;16.66;100.00;99895.69;5024290;28;20443;-66
2023/08/01 08:11:16;;;;;;;12.32;6.18;;;;;;;16.67;100.00;99899.19;5024940;28;20025;-66
2023/08/01 08:13:42;;;;;;;11.90;5.10;;;;;;;16.77;100.00;99907.47;5026443;28;20029;-66
2023/08/01 08:16:07;;;;;;;13.45;5.50;;;;;;;16.85;100.00;99917.03;5026369;28;20118;-65
2023/08/01 08:18:32;;;;;;;7.95;4.75;;;;;;;16.99;100.00;99911.16;5019282;28;20038;-65
2023/08/01 08:20:57;;;;;;;12.40;4.82;;;;;;;17.02;100.00;99917.94;5021242;28;20387;-66
2023/08/01 08:23:23;;;;;;;12.77;5.00;;;;;;;17.03;100.00;99906.97;5020986;28;20025;-66
2023/08/01 08:25:49;;;;;;;12.85;4.65;;;;;;;17.04;100.00;99934.59;5026148;28;20037;-65
2023/08/01 08:28:15;;;;;;;10.63;4.70;;;;;;;16.99;100.00;99919.22;5015814;28;20096;-66
2023/08/01 08:30:40;;;;;;;13.35;4.60;;;;;;;16.90;100.00;99926.00;5025991;28;20518;-65
2023/08/01 08:33:06;;;;;;;12.13;5.07;;;;;;;16.74;100.00;99932.06;5030851;28;20022;-66
2023/08/01 08:35:33;;;;;;;13.32;5.45;;;;;;;16.47;100.00;99926.28;5023204;28;20025;-65
2023/08/01 08:37:59;;;;;;;10.93;4.85;;;;;;;16.30;100.00;99920.81;5028454;28;20108;-66
2023/08/01 08:40:25;;;;;;;17.50;5.75;;;;;;;16.25;100.00;99923.38;5029938;28;20021;-65
2023/08/01 08:42:52;;;;;;;14.50;4.95;;;;;;;16.24;100.00;99940.47;5029282;28;20028;-65
2023/08/01 08:45:20;;;;;;;11.73;4.18;;;;;;;16.23;100.00;99935.34;5025729;28;20018;-65
2023/08/01 08:47:51;;;;;;;10.18;4.00;;;;;;;16.37;100.00;99944.81;5025992;28;20026;-66
2023/08/01 08:50:16;;;;;;;13.43;5.10;;;;;;;16.68;100.00;99927.63;5013769;28;20053;-65
2023/08/01 08:52:42;;;;;;;11.88;4.78;;;;;;;16.90;100.00;99947.44;5022936;28;20056;-66
2023/08/01 08:55:08;;;;;;;10.02;4.20;;;;;;;17.07;100.00;99941.41;5021330;28;20524;-66
2023/08/01 08:57:33;;;;;;;12.60;4.25;;;;;;;17.17;100.00;99952.34;5023437;28;20399;-65
2023/08/01 09:00:03;;;;;;;10.32;3.63;;;;;;;17.16;100.00;99934.59;5017756;28;20573;-65
2023/08/01 09:02:28;;;;;;;10.80;3.92;;;;;;;17.22;100.00;99925.59;5022372;28;20026;-66
2023/08/01 09:04:53;;;;;;;8.57;3.80;;;;;;;17.12;100.00;99920.03;5022158;28;20095;-66
2023/08/01 09:07:23;;;;;;;11.32;4.00;;;;;;;16.99;100.00;99932.63;5022845;28;20041;-65
2023/08/01 09:09:48;;;;;;;11.75;4.00;;;;;;;16.72;100.00;99924.25;5021790;28;20104;-66
2023/08/01 09:12:14;;;;;;;10.15;4.03;;;;;;;16.32;100.00;99934.78;5023676;28;20167;-65
2023/08/01 09:14:39;;;;;;;11.98;4.38;;;;;;;16.10;100.00;99950.56;5014697;28;20042;-65
2023/08/01 09:17:07;;;;;;;12.77;4.47;;;;;;;16.01;100.00;99953.81;5013010;28;20484;-65
2023/08/01 09:19:32;;;;;;;13.10;4.45;;;;;;;16.02;100.00;99950.06;5024026;28;20040;-66
2023/08/01 09:21:58;;;;;;;13.98;4.50;;;;;;;16.10;100.00;99950.56;5020013;28;20025;-66
2023/08/01 09:24:23;;;;;;;13.52;4.22;;;;;;;16.16;100.00;99945.34;5019314;28;21141;-66
2023/08/01 09:26:49;;;;;;;16.65;4.60;;;;;;;16.18;100.00;99952.09;5021340;28;20053;-66
2023/08/01 09:29:20;;;;;;;11.18;4.57;;;;;;;16.16;100.00;99964.09;5017251;28;20021;-65
2023/08/01 09:31:45;;;;;;;12.07;4.45;;;;;;;16.23;100.00;99959.47;5026942;28;20026;-65
2023/08/01 09:34:22;;;;;;;13.63;4.85;;;;;;;16.31;100.00;99965.31;5021341;28;20020;-65
2023/08/01 09:36:47;;;;;;;12.80;5.20;;;;;;;16.48;100.00;99962.78;5022828;28;20057;-65
2023/08/01 09:39:22;;;;;;;14.13;4.53;;;;;;;16.59;100.00;99967.34;5026541;28;20056;-66
2023/08/01 09:41:57;;;;;;;10.80;4.65;;;;;;;16.71;100.00;99967.38;5022069;28;20029;-65
2023/08/01 09:44:22;;;;;;;9.07;4.65;;;;;;;17.01;100.00;99973.44;5023844;28;20033;-65
2023/08/01 09:47:00;;;;;;;13.10;3.75;;;;;;;17.15;100.00;99965.16;5026559;28;20022;-64
2023/08/01 09:49:27;;;;;;;10.57;3.37;;;;;;;17.24;100.00;99985.22;5014206;28;20068;-65
2023/08/01 09:51:52;;;;;;;9.88;2.80;;;;;;;17.21;98.68;99985.69;5019699;28;20033;-65
2023/08/01 09:54:18;;;;;;;10.10;2.50;;;;;;;17.32;96.94;99990.22;5023954;28;20025;-65
2023/08/01 09:56:45;;;;;;;8.95;2.60;;;;;;;17.42;96.15;99977.03;5013335;28;20057;-65
2023/08/01 09:59:11;;;;;;;9.30;2.80;;;;;;;17.55;95.04;99982.13;5015916;28;20614;-65
2023/08/01 10:01:38;;;;;;;8.38;2.63;;;;;;;17.69;91.93;99985.41;5027150;28;20032;-65
2023/08/01 10:04:04;;;;;;;7.72;2.58;;;;;;;17.84;91.26;99984.88;5021941;28;20110;-65
2023/08/01 10:06:34;;;;;;;9.00;2.30;;;;;;;17.99;89.46;99984.38;5026577;28;20069;-65
2023/08/01 10:09:00;;;;;;;6.25;2.95;;;;;;;18.18;90.03;99972.34;5018024;28;20017;-65
2023/08/01 10:11:26;;;;;;;8.10;2.83;;;;;;;18.37;89.32;99981.03;5023719;28;20030;-66
2023/08/01 10:13:51;;;;;;;8.00;2.78;;;;;;;18.46;87.63;99990.31;5022897;28;20034;-66
2023/08/01 10:16:17;;;;;;;14.38;3.28;;;;;;;18.57;88.03;99976.00;5019470;28;20104;-65
2023/08/01 10:18:43;;;;;;;7.93;2.50;;;;;;;18.81;88.00;100001.72;5024905;28;20048;-65
2023/08/01 10:21:13;;;;;;;6.38;2.40;;;;;;;18.93;85.85;100001.63;5023646;28;20055;-65
2023/08/01 10:23:39;;;;;;;11.50;3.28;;;;;;;18.93;84.31;99996.22;5020293;28;20692;-65
2023/08/01 10:26:06;;;;;;;11.25;2.80;;;;;;;18.94;84.30;99997.03;5025230;28;20509;-65
2023/08/01 10:28:36;;;;;;;9.75;2.80;;;;;;;18.93;84.02;100000.78;5017765;28;20022;-66
2023/08/01 10:31:17;;;;;;;11.25;2.90;;;;;;;18.74;82.95;99981.41;5024784;28;20026;-65
2023/08/01 10:33:49;;;;;;;10.27;2.33;;;;;;;18.54;82.60;99998.00;5021410;28;20040;-65
2023/08/01 10:36:27;;;;;;;9.70;3.30;;;;;;;18.23;83.74;100000.16;5025839;28;20048;-65
2023/08/01 10:38:57;;;;;;;8.15;3.20;;;;;;;17.86;85.82;100015.81;5024545;28;20017;-66
2023/08/01 10:41:33;;;;;;;10.93;3.00;;;;;;;17.54;89.00;100019.97;5026480;28;20116;-65
2023/08/01 10:44:09;;;;;;;10.05;3.20;;;;;;;17.42;90.94;100017.31;5028662;28;20116;-65
2023/08/01 10:46:51;;;;;;;10.23;3.60;;;;;;;17.23;91.40;100015.78;5022132;28;20120;-65
2023/08/01 10:49:18;;;;;;;11.43;3.65;;;;;;;17.09;92.86;100004.50;5024207;28;20034;-64
2023/08/01 10:51:44;;;;;;;13.75;3.80;;;;;;;17.18;94.26;100007.63;5019808;28;20014;-65
2023/08/01 10:54:20;;;;;;;13.07;4.00;;;;;;;17.38;95.88;100013.47;5019206;28;20586;-65
2023/08/01 10:56:46;;;;;;;13.68;3.85;;;;;;;17.53;96.38;100005.72;5021891;28;20479;-65
2023/08/01 10:59:13;;;;;;;9.75;3.40;;;;;;;17.64;96.24;100004.06;5017870;28;20028;-66
2023/08/01 11:01:46;;;;;;;13.45;3.72;;;;;;;17.73;96.04;99993.81;5023974;28;20032;-65
2023/08/01 11:04:19;;;;;;;12.05;3.00;;;;;;;17.80;94.93;100010.59;5017027;28;20021;-65
2023/08/01 11:06:52;;;;;;;10.85;3.45;;;;;;;18.14;95.87;100017.72;5022580;28;20112;-65
2023/08/01 11:09:22;;;;;;;9.13;3.22;;;;;;;18.35;93.26;100015.41;5021088;28;20061;-65
2023/08/01 11:11:54;;;;;;;8.05;2.65;;;;;;;18.47;90.32;100018.84;5019931;28;20034;-64